sensor_id;sensor_type;location;lat;lon;timestamp;P1;durP1;ratioP1;P2;durP2;ratioP2
69573;SDS011;62840;52.366;5.980;2024-03-17T00:01:02;6.28;;;2.63;;
69573;SDS011;62840;52.366;5.980;2024-03-17T00:03:29;6.93;;;2.08;;
69573;SDS011;62840;52.366;5.980;2024-03-17T00:05:59;5.10;;;2.63;;
69573;SDS011;62840;52.366;5.980;2024-03-17T00:08:26;6.30;;;2.50;;
69573;SDS011;62840;52.366;5.980;2024-03-17T00:10:52;6.00;;;2.50;;
69573;SDS011;62840;52.366;5.980;2024-03-17T00:13:19;6.78;;;2.78;;
69573;SDS011;62840;52.366;5.980;2024-03-17T00:15:45;7.25;;;2.80;;
69573;SDS011;62840;52.366;5.980;2024-03-17T00:18:11;7.03;;;2.37;;
69573;SDS011;62840;52.366;5.980;2024-03-17T00:20:37;7.25;;;2.80;;
69573;SDS011;62840;52.366;5.980;2024-03-17T00:23:05;5.68;;;2.45;;
69573;SDS011;62840;52.366;5.980;2024-03-17T00:25:31;7.93;;;2.50;;
69573;SDS011;62840;52.366;5.980;2024-03-17T00:27:58;6.47;;;2.70;;
69573;SDS011;62840;52.366;5.980;2024-03-17T00:30:23;7.57;;;2.47;;
69573;SDS011;62840;52.366;5.980;2024-03-17T00:32:49;5.40;;;2.63;;
69573;SDS011;62840;52.366;5.980;2024-03-17T00:35:15;9.35;;;2.70;;
69573;SDS011;62840;52.366;5.980;2024-03-17T00:37:41;5.38;;;1.95;;
69573;SDS011;62840;52.366;5.980;2024-03-17T00:40:10;5.17;;;2.00;;
69573;SDS011;62840;52.366;5.980;2024-03-17T00:42:36;5.75;;;2.40;;
69573;SDS011;62840;52.366;5.980;2024-03-17T00:45:02;6.18;;;2.42;;
69573;SDS011;62840;52.366;5.980;2024-03-17T00:47:29;5.80;;;2.40;;
69573;SDS011;62840;52.366;5.980;2024-03-17T00:49:55;6.65;;;2.38;;
69573;SDS011;62840;52.366;5.980;2024-03-17T00:52:20;4.60;;;2.17;;
69573;SDS011;62840;52.366;5.980;2024-03-17T00:54:46;9.93;;;3.40;;
69573;SDS011;62840;52.366;5.980;2024-03-17T00:57:15;7.57;;;3.70;;
69573;SDS011;62840;52.366;5.980;2024-03-17T00:59:41;7.22;;;3.38;;
69573;SDS011;62840;52.366;5.980;2024-03-17T01:02:07;8.95;;;4.22;;
69573;SDS011;62840;52.366;5.980;2024-03-17T01:04:33;8.97;;;4.23;;
69573;SDS011;62840;52.366;5.980;2024-03-17T01:06:59;10.38;;;4.93;;
69573;SDS011;62840;52.366;5.980;2024-03-17T01:09:25;7.80;;;4.50;;
69573;SDS011;62840;52.366;5.980;2024-03-17T01:11:51;7.85;;;3.78;;
69573;SDS011;62840;52.366;5.980;2024-03-17T01:14:19;8.82;;;4.00;;
69573;SDS011;62840;52.366;5.980;2024-03-17T01:16:45;7.22;;;3.70;;
69573;SDS011;62840;52.366;5.980;2024-03-17T01:19:11;9.17;;;3.80;;
69573;SDS011;62840;52.366;5.980;2024-03-17T01:21:37;7.80;;;4.25;;
69573;SDS011;62840;52.366;5.980;2024-03-17T01:24:03;8.77;;;4.00;;
69573;SDS011;62840;52.366;5.980;2024-03-17T01:26:29;7.13;;;3.33;;
69573;SDS011;62840;52.366;5.980;2024-03-17T01:28:55;7.35;;;3.13;;
69573;SDS011;62840;52.366;5.980;2024-03-17T01:31:23;6.05;;;3.58;;
69573;SDS011;62840;52.366;5.980;2024-03-17T01:33:49;7.53;;;3.88;;
69573;SDS011;62840;52.366;5.980;2024-03-17T01:36:15;9.40;;;4.00;;
69573;SDS011;62840;52.366;5.980;2024-03-17T01:38:41;10.35;;;4.72;;
69573;SDS011;62840;52.366;5.980;2024-03-17T01:41:07;10.52;;;5.50;;
69573;SDS011;62840;52.366;5.980;2024-03-17T01:43:33;12.40;;;5.45;;
69573;SDS011;62840;52.366;5.980;2024-03-17T01:45:59;9.68;;;5.22;;
69573;SDS011;62840;52.366;5.980;2024-03-17T01:48:28;9.37;;;5.03;;
69573;SDS011;62840;52.366;5.980;2024-03-17T01:50:55;10.55;;;4.75;;
69573;SDS011;62840;52.366;5.980;2024-03-17T01:53:23;8.07;;;4.68;;
69573;SDS011;62840;52.366;5.980;2024-03-17T01:55:50;9.35;;;4.72;;
69573;SDS011;62840;52.366;5.980;2024-03-17T01:58:21;10.68;;;4.95;;
69573;SDS011;62840;52.366;5.980;2024-03-17T02:00:51;9.50;;;5.03;;
69573;SDS011;62840;52.366;5.980;2024-03-17T02:03:17;11.32;;;4.68;;
69573;SDS011;62840;52.366;5.980;2024-03-17T02:05:45;8.32;;;4.78;;
69573;SDS011;62840;52.366;5.980;2024-03-17T02:08:11;8.57;;;4.28;;
69573;SDS011;62840;52.366;5.980;2024-03-17T02:10:37;9.13;;;4.57;;
69573;SDS011;62840;52.366;5.980;2024-03-17T02:13:03;10.60;;;4.90;;
69573;SDS011;62840;52.366;5.980;2024-03-17T02:15:30;9.60;;;4.95;;
69573;SDS011;62840;52.366;5.980;2024-03-17T02:17:56;8.95;;;4.15;;
69573;SDS011;62840;52.366;5.980;2024-03-17T02:20:22;7.47;;;4.27;;
69573;SDS011;62840;52.366;5.980;2024-03-17T02:22:50;9.95;;;4.40;;
69573;SDS011;62840;52.366;5.980;2024-03-17T02:25:16;9.82;;;4.53;;
69573;SDS011;62840;52.366;5.980;2024-03-17T02:27:42;9.57;;;4.50;;
69573;SDS011;62840;52.366;5.980;2024-03-17T02:30:08;7.87;;;4.60;;
69573;SDS011;62840;52.366;5.980;2024-03-17T02:32:35;9.27;;;4.45;;
69573;SDS011;62840;52.366;5.980;2024-03-17T02:35:01;9.35;;;4.80;;
69573;SDS011;62840;52.366;5.980;2024-03-17T02:37:27;9.02;;;5.00;;
69573;SDS011;62840;52.366;5.980;2024-03-17T02:39:56;9.17;;;4.07;;
69573;SDS011;62840;52.366;5.980;2024-03-17T02:42:21;11.35;;;4.75;;
69573;SDS011;62840;52.366;5.980;2024-03-17T02:44:47;9.57;;;4.00;;
69573;SDS011;62840;52.366;5.980;2024-03-17T02:47:13;7.33;;;4.07;;
69573;SDS011;62840;52.366;5.980;2024-03-17T02:49:39;8.57;;;3.90;;
69573;SDS011;62840;52.366;5.980;2024-03-17T02:52:06;7.25;;;3.63;;
69573;SDS011;62840;52.366;5.980;2024-03-17T02:54:33;9.10;;;3.87;;
69573;SDS011;62840;52.366;5.980;2024-03-17T02:57:01;8.23;;;3.80;;
69573;SDS011;62840;52.366;5.980;2024-03-17T02:59:27;9.07;;;4.13;;
69573;SDS011;62840;52.366;5.980;2024-03-17T03:01:53;9.45;;;4.03;;
69573;SDS011;62840;52.366;5.980;2024-03-17T03:04:20;8.68;;;4.30;;
69573;SDS011;62840;52.366;5.980;2024-03-17T03:06:46;8.97;;;4.10;;
69573;SDS011;62840;52.366;5.980;2024-03-17T03:09:12;8.85;;;3.95;;
69573;SDS011;62840;52.366;5.980;2024-03-17T03:11:37;7.53;;;3.85;;
69573;SDS011;62840;52.366;5.980;2024-03-17T03:14:06;7.37;;;3.60;;
69573;SDS011;62840;52.366;5.980;2024-03-17T03:16:33;7.43;;;3.90;;
69573;SDS011;62840;52.366;5.980;2024-03-17T03:18:59;7.15;;;4.00;;
69573;SDS011;62840;52.366;5.980;2024-03-17T03:21:25;6.85;;;3.75;;
69573;SDS011;62840;52.366;5.980;2024-03-17T03:23:51;7.22;;;3.75;;
69573;SDS011;62840;52.366;5.980;2024-03-17T03:26:17;8.37;;;3.63;;
69573;SDS011;62840;52.366;5.980;2024-03-17T03:28:44;7.85;;;4.18;;
69573;SDS011;62840;52.366;5.980;2024-03-17T03:31:13;7.65;;;3.95;;
69573;SDS011;62840;52.366;5.980;2024-03-17T03:33:39;9.95;;;3.90;;
69573;SDS011;62840;52.366;5.980;2024-03-17T03:36:08;8.80;;;3.60;;
69573;SDS011;62840;52.366;5.980;2024-03-17T03:38:36;7.07;;;3.72;;
69573;SDS011;62840;52.366;5.980;2024-03-17T03:41:06;7.88;;;4.10;;
69573;SDS011;62840;52.366;5.980;2024-03-17T03:43:33;7.07;;;3.80;;
69573;SDS011;62840;52.366;5.980;2024-03-17T03:45:59;8.73;;;4.10;;
69573;SDS011;62840;52.366;5.980;2024-03-17T03:48:27;7.40;;;4.20;;
69573;SDS011;62840;52.366;5.980;2024-03-17T03:50:53;10.43;;;3.90;;
69573;SDS011;62840;52.366;5.980;2024-03-17T03:53:19;7.93;;;4.05;;
69573;SDS011;62840;52.366;5.980;2024-03-17T03:55:45;7.57;;;4.25;;
69573;SDS011;62840;52.366;5.980;2024-03-17T03:58:11;9.90;;;4.30;;
69573;SDS011;62840;52.366;5.980;2024-03-17T04:00:37;7.93;;;4.50;;
69573;SDS011;62840;52.366;5.980;2024-03-17T04:03:03;7.07;;;4.40;;
69573;SDS011;62840;52.366;5.980;2024-03-17T04:05:32;8.52;;;4.53;;
69573;SDS011;62840;52.366;5.980;2024-03-17T04:08:00;8.77;;;4.10;;
69573;SDS011;62840;52.366;5.980;2024-03-17T04:10:26;8.40;;;4.00;;
69573;SDS011;62840;52.366;5.980;2024-03-17T04:12:52;8.55;;;4.93;;
69573;SDS011;62840;52.366;5.980;2024-03-17T04:15:18;7.63;;;4.40;;
69573;SDS011;62840;52.366;5.980;2024-03-17T04:17:45;7.67;;;4.47;;
69573;SDS011;62840;52.366;5.980;2024-03-17T04:20:11;8.13;;;4.25;;
69573;SDS011;62840;52.366;5.980;2024-03-17T04:22:40;10.50;;;5.00;;
69573;SDS011;62840;52.366;5.980;2024-03-17T04:25:07;8.95;;;4.35;;
69573;SDS011;62840;52.366;5.980;2024-03-17T04:27:33;9.32;;;4.63;;
69573;SDS011;62840;52.366;5.980;2024-03-17T04:29:59;8.37;;;4.53;;
69573;SDS011;62840;52.366;5.980;2024-03-17T04:32:25;9.60;;;4.68;;
69573;SDS011;62840;52.366;5.980;2024-03-17T04:34:52;8.38;;;4.57;;
69573;SDS011;62840;52.366;5.980;2024-03-17T04:37:18;8.48;;;4.43;;
69573;SDS011;62840;52.366;5.980;2024-03-17T04:39:46;8.60;;;4.85;;
69573;SDS011;62840;52.366;5.980;2024-03-17T04:42:13;9.82;;;5.38;;
69573;SDS011;62840;52.366;5.980;2024-03-17T04:44:40;8.98;;;4.65;;
69573;SDS011;62840;52.366;5.980;2024-03-17T04:47:06;8.02;;;4.53;;
69573;SDS011;62840;52.366;5.980;2024-03-17T04:49:32;8.67;;;4.87;;
69573;SDS011;62840;52.366;5.980;2024-03-17T04:52:00;9.52;;;4.50;;
69573;SDS011;62840;52.366;5.980;2024-03-17T04:54:26;8.30;;;4.57;;
69573;SDS011;62840;52.366;5.980;2024-03-17T04:56:55;9.75;;;4.47;;
69573;SDS011;62840;52.366;5.980;2024-03-17T04:59:20;8.10;;;4.55;;
69573;SDS011;62840;52.366;5.980;2024-03-17T05:01:46;11.02;;;4.25;;
69573;SDS011;62840;52.366;5.980;2024-03-17T05:04:12;7.90;;;4.10;;
69573;SDS011;62840;52.366;5.980;2024-03-17T05:06:38;8.43;;;4.38;;
69573;SDS011;62840;52.366;5.980;2024-03-17T05:09:04;6.88;;;4.20;;
69573;SDS011;62840;52.366;5.980;2024-03-17T05:11:30;8.27;;;4.60;;
69573;SDS011;62840;52.366;5.980;2024-03-17T05:13:58;9.02;;;3.97;;
69573;SDS011;62840;52.366;5.980;2024-03-17T05:16:24;10.13;;;4.65;;
69573;SDS011;62840;52.366;5.980;2024-03-17T05:18:50;9.07;;;4.17;;
69573;SDS011;62840;52.366;5.980;2024-03-17T05:21:16;9.27;;;4.28;;
69573;SDS011;62840;52.366;5.980;2024-03-17T05:23:42;8.13;;;4.07;;
69573;SDS011;62840;52.366;5.980;2024-03-17T05:26:07;9.20;;;4.10;;
69573;SDS011;62840;52.366;5.980;2024-03-17T05:28:33;10.55;;;4.32;;
69573;SDS011;62840;52.366;5.980;2024-03-17T05:31:02;8.03;;;4.37;;
69573;SDS011;62840;52.366;5.980;2024-03-17T05:33:28;7.35;;;4.20;;
69573;SDS011;62840;52.366;5.980;2024-03-17T05:35:54;8.90;;;4.07;;
69573;SDS011;62840;52.366;5.980;2024-03-17T05:38:22;9.88;;;4.47;;
69573;SDS011;62840;52.366;5.980;2024-03-17T05:40:53;8.73;;;4.77;;
69573;SDS011;62840;52.366;5.980;2024-03-17T05:43:20;8.70;;;4.57;;
69573;SDS011;62840;52.366;5.980;2024-03-17T05:45:46;8.32;;;3.67;;
69573;SDS011;62840;52.366;5.980;2024-03-17T05:48:14;9.25;;;4.22;;
69573;SDS011;62840;52.366;5.980;2024-03-17T05:50:40;11.67;;;4.60;;
69573;SDS011;62840;52.366;5.980;2024-03-17T05:53:06;7.50;;;4.28;;
69573;SDS011;62840;52.366;5.980;2024-03-17T05:55:34;8.40;;;4.25;;
69573;SDS011;62840;52.366;5.980;2024-03-17T05:58:00;7.37;;;4.30;;
69573;SDS011;62840;52.366;5.980;2024-03-17T06:00:26;8.18;;;4.30;;
69573;SDS011;62840;52.366;5.980;2024-03-17T06:02:52;8.32;;;4.47;;
69573;SDS011;62840;52.366;5.980;2024-03-17T06:05:20;9.50;;;4.10;;
69573;SDS011;62840;52.366;5.980;2024-03-17T06:07:46;7.97;;;4.07;;
69573;SDS011;62840;52.366;5.980;2024-03-17T06:10:13;6.57;;;3.78;;
69573;SDS011;62840;52.366;5.980;2024-03-17T06:12:39;8.55;;;4.75;;
69573;SDS011;62840;52.366;5.980;2024-03-17T06:15:05;8.23;;;4.00;;
69573;SDS011;62840;52.366;5.980;2024-03-17T06:17:32;10.82;;;4.70;;
69573;SDS011;62840;52.366;5.980;2024-03-17T06:19:58;8.57;;;4.82;;
69573;SDS011;62840;52.366;5.980;2024-03-17T06:22:28;10.48;;;5.03;;
69573;SDS011;62840;52.366;5.980;2024-03-17T06:24:54;8.83;;;4.77;;
69573;SDS011;62840;52.366;5.980;2024-03-17T06:27:20;10.00;;;4.72;;
69573;SDS011;62840;52.366;5.980;2024-03-17T06:29:45;8.55;;;4.70;;
69573;SDS011;62840;52.366;5.980;2024-03-17T06:32:11;7.53;;;4.43;;
69573;SDS011;62840;52.366;5.980;2024-03-17T06:34:37;8.80;;;4.97;;
69573;SDS011;62840;52.366;5.980;2024-03-17T06:37:03;11.13;;;4.97;;
69573;SDS011;62840;52.366;5.980;2024-03-17T06:39:32;9.57;;;4.67;;
69573;SDS011;62840;52.366;5.980;2024-03-17T06:41:58;10.48;;;5.32;;
69573;SDS011;62840;52.366;5.980;2024-03-17T06:44:24;9.32;;;4.90;;
69573;SDS011;62840;52.366;5.980;2024-03-17T06:46:49;10.80;;;5.30;;
69573;SDS011;62840;52.366;5.980;2024-03-17T06:49:15;9.40;;;4.70;;
69573;SDS011;62840;52.366;5.980;2024-03-17T06:51:42;10.63;;;5.28;;
69573;SDS011;62840;52.366;5.980;2024-03-17T06:54:08;9.80;;;4.77;;
69573;SDS011;62840;52.366;5.980;2024-03-17T06:56:37;8.07;;;4.55;;
69573;SDS011;62840;52.366;5.980;2024-03-17T06:59:03;8.45;;;4.55;;
69573;SDS011;62840;52.366;5.980;2024-03-17T07:01:29;9.13;;;4.75;;
69573;SDS011;62840;52.366;5.980;2024-03-17T07:03:54;11.02;;;5.10;;
69573;SDS011;62840;52.366;5.980;2024-03-17T07:06:20;9.05;;;5.00;;
69573;SDS011;62840;52.366;5.980;2024-03-17T07:08:46;8.43;;;4.97;;
69573;SDS011;62840;52.366;5.980;2024-03-17T07:11:12;10.38;;;5.70;;
69573;SDS011;62840;52.366;5.980;2024-03-17T07:13:40;13.57;;;5.65;;
69573;SDS011;62840;52.366;5.980;2024-03-17T07:16:06;10.95;;;5.43;;
69573;SDS011;62840;52.366;5.980;2024-03-17T07:18:32;11.00;;;6.10;;
69573;SDS011;62840;52.366;5.980;2024-03-17T07:21:00;9.90;;;5.78;;
69573;SDS011;62840;52.366;5.980;2024-03-17T07:23:28;10.45;;;5.38;;
69573;SDS011;62840;52.366;5.980;2024-03-17T07:25:54;13.03;;;6.20;;
69573;SDS011;62840;52.366;5.980;2024-03-17T07:28:21;10.65;;;5.63;;
69573;SDS011;62840;52.366;5.980;2024-03-17T07:30:51;13.32;;;6.63;;
69573;SDS011;62840;52.366;5.980;2024-03-17T07:33:19;12.07;;;6.20;;
69573;SDS011;62840;52.366;5.980;2024-03-17T07:35:48;11.98;;;6.40;;
69573;SDS011;62840;52.366;5.980;2024-03-17T07:38:18;13.50;;;7.50;;
69573;SDS011;62840;52.366;5.980;2024-03-17T07:40:45;9.38;;;5.40;;
69573;SDS011;62840;52.366;5.980;2024-03-17T07:43:21;13.20;;;6.57;;
69573;SDS011;62840;52.366;5.980;2024-03-17T07:45:47;12.77;;;6.65;;
69573;SDS011;62840;52.366;5.980;2024-03-17T07:48:25;12.37;;;6.20;;
69573;SDS011;62840;52.366;5.980;2024-03-17T07:50:53;13.70;;;6.72;;
69573;SDS011;62840;52.366;5.980;2024-03-17T07:53:20;11.93;;;6.20;;
69573;SDS011;62840;52.366;5.980;2024-03-17T07:55:45;11.75;;;6.72;;
69573;SDS011;62840;52.366;5.980;2024-03-17T07:58:11;13.97;;;6.90;;
69573;SDS011;62840;52.366;5.980;2024-03-17T08:00:37;12.35;;;6.18;;
69573;SDS011;62840;52.366;5.980;2024-03-17T08:03:06;13.15;;;6.70;;
69573;SDS011;62840;52.366;5.980;2024-03-17T08:05:31;13.93;;;6.57;;
69573;SDS011;62840;52.366;5.980;2024-03-17T08:07:57;12.55;;;6.68;;
69573;SDS011;62840;52.366;5.980;2024-03-17T08:10:23;14.77;;;6.60;;
69573;SDS011;62840;52.366;5.980;2024-03-17T08:12:49;14.23;;;6.73;;
69573;SDS011;62840;52.366;5.980;2024-03-17T08:15:15;12.95;;;6.28;;
69573;SDS011;62840;52.366;5.980;2024-03-17T08:17:41;11.15;;;6.68;;
69573;SDS011;62840;52.366;5.980;2024-03-17T08:20:10;12.60;;;6.22;;
69573;SDS011;62840;52.366;5.980;2024-03-17T08:22:36;13.45;;;7.00;;
69573;SDS011;62840;52.366;5.980;2024-03-17T08:25:02;11.90;;;6.35;;
69573;SDS011;62840;52.366;5.980;2024-03-17T08:27:29;12.05;;;6.80;;
69573;SDS011;62840;52.366;5.980;2024-03-17T08:29:55;13.52;;;6.68;;
69573;SDS011;62840;52.366;5.980;2024-03-17T08:32:21;14.43;;;6.80;;
69573;SDS011;62840;52.366;5.980;2024-03-17T08:34:46;13.57;;;6.67;;
69573;SDS011;62840;52.366;5.980;2024-03-17T08:37:15;11.32;;;6.57;;
69573;SDS011;62840;52.366;5.980;2024-03-17T08:39:41;13.50;;;6.93;;
69573;SDS011;62840;52.366;5.980;2024-03-17T08:42:07;12.27;;;6.23;;
69573;SDS011;62840;52.366;5.980;2024-03-17T08:44:32;11.82;;;6.60;;
69573;SDS011;62840;52.366;5.980;2024-03-17T08:46:58;13.77;;;6.55;;
69573;SDS011;62840;52.366;5.980;2024-03-17T08:49:24;11.45;;;6.47;;
69573;SDS011;62840;52.366;5.980;2024-03-17T08:51:50;12.68;;;7.00;;
69573;SDS011;62840;52.366;5.980;2024-03-17T08:54:18;12.10;;;6.57;;
69573;SDS011;62840;52.366;5.980;2024-03-17T08:56:44;12.40;;;5.43;;
69573;SDS011;62840;52.366;5.980;2024-03-17T08:59:10;11.35;;;5.93;;
69573;SDS011;62840;52.366;5.980;2024-03-17T09:01:36;12.80;;;5.73;;
69573;SDS011;62840;52.366;5.980;2024-03-17T09:04:02;11.15;;;5.90;;
69573;SDS011;62840;52.366;5.980;2024-03-17T09:06:28;13.57;;;6.03;;
69573;SDS011;62840;52.366;5.980;2024-03-17T09:08:54;12.27;;;6.30;;
69573;SDS011;62840;52.366;5.980;2024-03-17T09:11:22;8.93;;;5.70;;
69573;SDS011;62840;52.366;5.980;2024-03-17T09:13:48;8.55;;;5.07;;
69573;SDS011;62840;52.366;5.980;2024-03-17T09:16:14;10.50;;;5.80;;
69573;SDS011;62840;52.366;5.980;2024-03-17T09:18:40;12.23;;;5.47;;
69573;SDS011;62840;52.366;5.980;2024-03-17T09:21:06;10.18;;;5.40;;
69573;SDS011;62840;52.366;5.980;2024-03-17T09:23:33;8.93;;;4.67;;
69573;SDS011;62840;52.366;5.980;2024-03-17T09:26:01;10.70;;;5.45;;
69573;SDS011;62840;52.366;5.980;2024-03-17T09:28:32;9.07;;;4.82;;
69573;SDS011;62840;52.366;5.980;2024-03-17T09:30:58;10.18;;;5.20;;
69573;SDS011;62840;52.366;5.980;2024-03-17T09:33:25;9.27;;;5.07;;
69573;SDS011;62840;52.366;5.980;2024-03-17T09:35:53;9.33;;;4.87;;
69573;SDS011;62840;52.366;5.980;2024-03-17T09:38:20;9.40;;;4.70;;
69573;SDS011;62840;52.366;5.980;2024-03-17T09:40:46;8.63;;;5.22;;
69573;SDS011;62840;52.366;5.980;2024-03-17T09:43:12;10.93;;;5.13;;
69573;SDS011;62840;52.366;5.980;2024-03-17T09:45:40;8.43;;;4.93;;
69573;SDS011;62840;52.366;5.980;2024-03-17T09:48:06;8.68;;;5.03;;
69573;SDS011;62840;52.366;5.980;2024-03-17T09:50:38;9.20;;;4.80;;
69573;SDS011;62840;52.366;5.980;2024-03-17T09:53:05;11.82;;;5.43;;
69573;SDS011;62840;52.366;5.980;2024-03-17T09:55:40;10.57;;;5.30;;
69573;SDS011;62840;52.366;5.980;2024-03-17T09:58:07;9.43;;;4.97;;
69573;SDS011;62840;52.366;5.980;2024-03-17T10:00:43;9.10;;;5.00;;
69573;SDS011;62840;52.366;5.980;2024-03-17T10:03:09;10.20;;;4.60;;
69573;SDS011;62840;52.366;5.980;2024-03-17T10:05:35;8.55;;;4.38;;
69573;SDS011;62840;52.366;5.980;2024-03-17T10:08:01;8.83;;;4.77;;
69573;SDS011;62840;52.366;5.980;2024-03-17T10:10:28;9.60;;;4.47;;
69573;SDS011;62840;52.366;5.980;2024-03-17T10:12:53;8.98;;;4.97;;
69573;SDS011;62840;52.366;5.980;2024-03-17T10:15:19;10.27;;;4.60;;
69573;SDS011;62840;52.366;5.980;2024-03-17T10:17:48;9.70;;;4.75;;
69573;SDS011;62840;52.366;5.980;2024-03-17T10:20:15;9.50;;;5.00;;
69573;SDS011;62840;52.366;5.980;2024-03-17T10:22:57;8.95;;;4.50;;
69573;SDS011;62840;52.366;5.980;2024-03-17T10:25:29;9.55;;;5.28;;
69573;SDS011;62840;52.366;5.980;2024-03-17T10:27:57;8.38;;;4.65;;
69573;SDS011;62840;52.366;5.980;2024-03-17T10:30:24;8.13;;;4.35;;
69573;SDS011;62840;52.366;5.980;2024-03-17T10:32:56;8.95;;;4.82;;
69573;SDS011;62840;52.366;5.980;2024-03-17T10:35:27;9.07;;;4.75;;
69573;SDS011;62840;52.366;5.980;2024-03-17T10:37:56;10.07;;;5.03;;
69573;SDS011;62840;52.366;5.980;2024-03-17T10:40:24;9.48;;;4.25;;
69573;SDS011;62840;52.366;5.980;2024-03-17T10:42:52;9.07;;;4.72;;
69573;SDS011;62840;52.366;5.980;2024-03-17T10:45:18;10.45;;;5.20;;
69573;SDS011;62840;52.366;5.980;2024-03-17T10:47:47;9.05;;;4.70;;
69573;SDS011;62840;52.366;5.980;2024-03-17T10:50:18;9.97;;;4.50;;
69573;SDS011;62840;52.366;5.980;2024-03-17T10:52:46;8.63;;;4.53;;
69573;SDS011;62840;52.366;5.980;2024-03-17T10:55:19;9.00;;;4.60;;
69573;SDS011;62840;52.366;5.980;2024-03-17T10:57:48;8.30;;;4.05;;
69573;SDS011;62840;52.366;5.980;2024-03-17T11:00:16;8.43;;;4.28;;
69573;SDS011;62840;52.366;5.980;2024-03-17T11:02:44;7.83;;;3.90;;
69573;SDS011;62840;52.366;5.980;2024-03-17T11:05:14;7.07;;;3.65;;
69573;SDS011;62840;52.366;5.980;2024-03-17T11:07:46;7.60;;;4.18;;
69573;SDS011;62840;52.366;5.980;2024-03-17T11:10:15;8.10;;;4.35;;
69573;SDS011;62840;52.366;5.980;2024-03-17T11:12:45;7.43;;;4.05;;
69573;SDS011;62840;52.366;5.980;2024-03-17T11:21:07;8.05;;;4.15;;
69573;SDS011;62840;52.366;5.980;2024-03-17T11:23:44;7.20;;;3.92;;
69573;SDS011;62840;52.366;5.980;2024-03-17T11:26:26;9.10;;;4.28;;
69573;SDS011;62840;52.366;5.980;2024-03-17T11:28:53;7.67;;;3.77;;
69573;SDS011;62840;52.366;5.980;2024-03-17T11:31:35;8.00;;;4.20;;
69573;SDS011;62840;52.366;5.980;2024-03-17T11:37:04;7.22;;;3.83;;
69573;SDS011;62840;52.366;5.980;2024-03-17T11:39:46;8.82;;;3.95;;
69573;SDS011;62840;52.366;5.980;2024-03-17T11:42:20;7.00;;;3.60;;
69573;SDS011;62840;52.366;5.980;2024-03-17T11:44:56;7.75;;;3.88;;
69573;SDS011;62840;52.366;5.980;2024-03-17T11:47:34;7.47;;;3.47;;
69573;SDS011;62840;52.366;5.980;2024-03-17T11:50:02;6.80;;;3.40;;
69573;SDS011;62840;52.366;5.980;2024-03-17T11:52:33;6.53;;;3.90;;
69573;SDS011;62840;52.366;5.980;2024-03-17T11:54:59;7.65;;;3.97;;
69573;SDS011;62840;52.366;5.980;2024-03-17T11:57:25;7.72;;;3.95;;
69573;SDS011;62840;52.366;5.980;2024-03-17T11:59:53;7.07;;;3.72;;
69573;SDS011;62840;52.366;5.980;2024-03-17T12:02:21;7.60;;;4.00;;
69573;SDS011;62840;52.366;5.980;2024-03-17T12:04:49;7.60;;;3.72;;
69573;SDS011;62840;52.366;5.980;2024-03-17T12:07:15;7.32;;;4.18;;
69573;SDS011;62840;52.366;5.980;2024-03-17T12:09:46;8.27;;;4.00;;
69573;SDS011;62840;52.366;5.980;2024-03-17T12:12:16;9.65;;;4.43;;
69573;SDS011;62840;52.366;5.980;2024-03-17T12:14:44;9.50;;;4.50;;
69573;SDS011;62840;52.366;5.980;2024-03-17T12:17:11;7.85;;;4.43;;
69573;SDS011;62840;52.366;5.980;2024-03-17T12:19:39;8.80;;;4.72;;
69573;SDS011;62840;52.366;5.980;2024-03-17T12:22:09;9.02;;;4.50;;
69573;SDS011;62840;52.366;5.980;2024-03-17T12:24:43;8.73;;;4.10;;
69573;SDS011;62840;52.366;5.980;2024-03-17T12:27:16;7.90;;;4.32;;
69573;SDS011;62840;52.366;5.980;2024-03-17T12:29:44;8.63;;;3.80;;
69573;SDS011;62840;52.366;5.980;2024-03-17T12:32:12;7.95;;;4.15;;
69573;SDS011;62840;52.366;5.980;2024-03-17T12:34:40;7.72;;;4.13;;
69573;SDS011;62840;52.366;5.980;2024-03-17T12:37:13;8.13;;;4.03;;
69573;SDS011;62840;52.366;5.980;2024-03-17T12:39:46;7.95;;;4.55;;
69573;SDS011;62840;52.366;5.980;2024-03-17T12:42:13;9.02;;;4.28;;
69573;SDS011;62840;52.366;5.980;2024-03-17T12:44:40;8.23;;;4.80;;
69573;SDS011;62840;52.366;5.980;2024-03-17T12:47:14;9.40;;;4.50;;
69573;SDS011;62840;52.366;5.980;2024-03-17T12:49:44;8.35;;;4.50;;
69573;SDS011;62840;52.366;5.980;2024-03-17T12:52:16;7.33;;;4.10;;
69573;SDS011;62840;52.366;5.980;2024-03-17T12:54:46;7.85;;;4.55;;
69573;SDS011;62840;52.366;5.980;2024-03-17T12:57:22;8.48;;;4.18;;
69573;SDS011;62840;52.366;5.980;2024-03-17T12:59:48;7.90;;;3.78;;
69573;SDS011;62840;52.366;5.980;2024-03-17T13:02:14;8.98;;;4.40;;
69573;SDS011;62840;52.366;5.980;2024-03-17T13:04:40;7.63;;;4.03;;
69573;SDS011;62840;52.366;5.980;2024-03-17T13:07:09;8.23;;;4.10;;
69573;SDS011;62840;52.366;5.980;2024-03-17T13:09:36;6.97;;;3.72;;
69573;SDS011;62840;52.366;5.980;2024-03-17T13:12:04;7.32;;;4.03;;
69573;SDS011;62840;52.366;5.980;2024-03-17T13:14:39;8.23;;;3.90;;
69573;SDS011;62840;52.366;5.980;2024-03-17T13:17:06;8.77;;;4.30;;
69573;SDS011;62840;52.366;5.980;2024-03-17T13:19:39;9.23;;;3.92;;
69573;SDS011;62840;52.366;5.980;2024-03-17T13:22:05;9.65;;;4.45;;
69573;SDS011;62840;52.366;5.980;2024-03-17T13:24:32;6.55;;;3.40;;
69573;SDS011;62840;52.366;5.980;2024-03-17T13:26:57;8.27;;;4.23;;
69573;SDS011;62840;52.366;5.980;2024-03-17T13:29:26;10.45;;;4.10;;
69573;SDS011;62840;52.366;5.980;2024-03-17T14:22:02;9.15;;;4.05;;
69573;SDS011;62840;52.366;5.980;2024-03-17T14:24:28;10.38;;;4.85;;
69573;SDS011;62840;52.366;5.980;2024-03-17T14:26:54;8.70;;;4.05;;
69573;SDS011;62840;52.366;5.980;2024-03-17T14:29:19;7.93;;;3.80;;
69573;SDS011;62840;52.366;5.980;2024-03-17T14:31:45;10.77;;;4.65;;
69573;SDS011;62840;52.366;5.980;2024-03-17T14:34:11;10.23;;;4.40;;
69573;SDS011;62840;52.366;5.980;2024-03-17T14:36:37;9.43;;;4.50;;
69573;SDS011;62840;52.366;5.980;2024-03-17T14:39:05;8.98;;;4.45;;
69573;SDS011;62840;52.366;5.980;2024-03-17T14:41:31;8.13;;;4.10;;
69573;SDS011;62840;52.366;5.980;2024-03-17T14:43:57;9.35;;;4.38;;
69573;SDS011;62840;52.366;5.980;2024-03-17T14:46:23;10.32;;;4.22;;
69573;SDS011;62840;52.366;5.980;2024-03-17T14:48:49;8.57;;;4.13;;
69573;SDS011;62840;52.366;5.980;2024-03-17T14:51:15;7.47;;;4.07;;
69573;SDS011;62840;52.366;5.980;2024-03-17T14:53:41;9.07;;;4.97;;
69573;SDS011;62840;52.366;5.980;2024-03-17T14:56:09;7.78;;;4.05;;
69573;SDS011;62840;52.366;5.980;2024-03-17T14:58:35;8.38;;;4.07;;
69573;SDS011;62840;52.366;5.980;2024-03-17T15:01:01;9.25;;;5.05;;
69573;SDS011;62840;52.366;5.980;2024-03-17T15:03:27;8.95;;;4.60;;
69573;SDS011;62840;52.366;5.980;2024-03-17T15:05:53;9.63;;;4.70;;
69573;SDS011;62840;52.366;5.980;2024-03-17T15:08:19;9.95;;;4.25;;
69573;SDS011;62840;52.366;5.980;2024-03-17T15:10:45;8.02;;;4.28;;
69573;SDS011;62840;52.366;5.980;2024-03-17T15:13:13;10.18;;;4.03;;
69573;SDS011;62840;52.366;5.980;2024-03-17T15:15:39;8.95;;;4.45;;
69573;SDS011;62840;52.366;5.980;2024-03-17T15:18:05;8.82;;;4.25;;
69573;SDS011;62840;52.366;5.980;2024-03-17T15:20:31;9.52;;;4.43;;
69573;SDS011;62840;52.366;5.980;2024-03-17T15:22:57;9.00;;;4.80;;
69573;SDS011;62840;52.366;5.980;2024-03-17T15:25:23;11.80;;;5.70;;
69573;SDS011;62840;52.366;5.980;2024-03-17T15:27:49;12.50;;;6.80;;
69573;SDS011;62840;52.366;5.980;2024-03-17T15:30:18;10.18;;;5.03;;
69573;SDS011;62840;52.366;5.980;2024-03-17T15:32:44;12.10;;;6.03;;
69573;SDS011;62840;52.366;5.980;2024-03-17T15:35:10;11.05;;;5.93;;
69573;SDS011;62840;52.366;5.980;2024-03-17T15:37:36;12.98;;;8.63;;
69573;SDS011;62840;52.366;5.980;2024-03-17T15:40:02;8.98;;;5.55;;
69573;SDS011;62840;52.366;5.980;2024-03-17T15:42:29;8.63;;;4.80;;